Time;durP1;ratioP1;P1;durP2;ratioP2;P2;SDS_P1;SDS_P2;PMS_P1;PMS_P2;Temp;Humidity;BMP_temperature;BMP_pressure;BME280_temperature;BME280_humidity;BME280_pressure;Samples;Min_cycle;Max_cycle;Signal;HPM_P1;HPM_P2
2021/12/04 00:00:42;;;;;;;3.95;2.75;;;19.00;99.90;;;;;;4241861;27;20209;-87
2021/12/04 00:02:45;;;;;;;2.50;2.30;;;19.00;99.90;;;;;;4249117;27;20254;-87
2021/12/04 00:04:49;;;;;;;3.25;2.70;;;19.00;99.90;;;;;;4249506;27;20262;-88
2021/12/04 00:06:52;;;;;;;3.80;2.83;;;19.00;99.90;;;;;;4249644;27;20193;-87
2021/12/04 00:08:57;;;;;;;3.45;2.60;;;19.00;99.90;;;;;;4248946;27;20673;-87
2021/12/04 00:10:59;;;;;;;3.03;2.60;;;19.00;99.90;;;;;;4249595;27;20266;-88
2021/12/04 00:13:05;;;;;;;3.38;2.70;;;19.00;99.90;;;;;;4249307;27;20672;-87
2021/12/04 00:15:09;;;;;;;3.13;2.50;;;19.00;99.90;;;;;;4249608;27;20197;-87
2021/12/04 00:17:12;;;;;;;4.80;3.17;;;19.00;99.90;;;;;;4246007;27;20291;-87
2021/12/04 00:19:14;;;;;;;2.80;2.47;;;19.00;99.90;;;;;;4243668;27;20635;-88
2021/12/04 00:21:17;;;;;;;3.13;2.47;;;19.00;99.90;;;;;;4249425;27;20816;-88
2021/12/04 00:23:19;;;;;;;3.42;2.42;;;19.00;99.90;;;;;;4249429;27;20250;-87
2021/12/04 00:25:21;;;;;;;3.67;2.90;;;19.00;99.90;;;;;;4249275;27;20227;-87
2021/12/04 00:27:24;;;;;;;2.95;2.45;;;19.00;99.90;;;;;;4250172;27;20247;-87
2021/12/04 00:29:26;;;;;;;3.40;2.40;;;18.90;99.90;;;;;;4249357;27;20205;-87
2021/12/04 00:31:30;;;;;;;3.40;2.58;;;18.90;99.90;;;;;;4249311;27;20258;-88
2021/12/04 00:33:35;;;;;;;3.90;2.70;;;18.90;99.90;;;;;;4249647;27;20611;-87
2021/12/04 00:35:46;;;;;;;2.97;2.33;;;18.90;99.90;;;;;;4242666;27;20213;-87
2021/12/04 00:38:00;;;;;;;3.00;2.35;;;18.90;99.90;;;;;;4237409;27;20217;-87
2021/12/04 00:49:24;;;;;;;3.40;2.13;;;18.80;99.90;;;;;;4239875;27;20210;-88
2021/12/04 00:51:27;;;;;;;2.83;2.40;;;18.90;99.90;;;;;;4235362;27;20730;-87
2021/12/04 00:53:29;;;;;;;2.53;2.10;;;18.90;99.90;;;;;;4236015;27;20214;-87
2021/12/04 00:55:32;;;;;;;2.70;2.08;;;18.80;99.90;;;;;;4238900;27;20206;-86
2021/12/04 00:57:34;;;;;;;3.20;2.42;;;18.80;99.90;;;;;;4239319;27;20217;-88
2021/12/04 00:59:37;;;;;;;3.08;2.28;;;18.80;99.90;;;;;;4236835;27;20237;-87
2021/12/04 01:01:41;;;;;;;4.25;2.20;;;18.90;99.90;;;;;;4238849;27;20688;-87
2021/12/04 01:03:45;;;;;;;2.70;2.05;;;18.90;99.90;;;;;;4238694;27;20213;-87
2021/12/04 01:05:50;;;;;;;2.13;1.83;;;18.80;99.90;;;;;;4235868;27;20231;-87
2021/12/04 01:07:53;;;;;;;2.22;1.90;;;18.80;99.90;;;;;;4238547;27;20224;-88
2021/12/04 01:09:55;;;;;;;2.65;2.00;;;18.80;99.90;;;;;;4239818;27;20228;-88
2021/12/04 01:11:58;;;;;;;2.30;1.98;;;18.80;99.90;;;;;;4235633;28;20262;-88
2021/12/04 01:14:00;;;;;;;2.47;2.13;;;18.80;99.90;;;;;;4237769;27;20205;-87
2021/12/04 01:16:03;;;;;;;2.28;2.08;;;18.80;99.90;;;;;;4240039;27;20259;-87
2021/12/04 01:18:06;;;;;;;2.92;2.00;;;18.80;99.90;;;;;;4239385;28;20301;-86
2021/12/04 01:20:11;;;;;;;2.63;2.17;;;18.80;99.90;;;;;;4235860;28;20272;-87
2021/12/04 01:22:13;;;;;;;2.55;2.10;;;18.80;99.90;;;;;;4239165;28;20273;-87
2021/12/04 01:24:16;;;;;;;2.38;1.85;;;18.80;99.90;;;;;;4235788;28;20674;-87
2021/12/04 01:26:20;;;;;;;2.42;1.95;;;18.80;99.90;;;;;;4234088;28;20254;-87
2021/12/04 01:28:22;;;;;;;2.55;1.85;;;18.70;99.90;;;;;;4238894;28;20626;-87
2021/12/04 01:30:24;;;;;;;2.70;2.03;;;18.80;99.90;;;;;;4239048;28;20217;-86
2021/12/04 01:32:27;;;;;;;1.98;1.60;;;18.80;99.90;;;;;;4236024;28;20214;-87
2021/12/04 01:34:29;;;;;;;2.53;1.80;;;18.80;99.90;;;;;;4242602;28;20273;-87
2021/12/04 01:36:33;;;;;;;2.47;1.85;;;18.70;99.90;;;;;;4238324;28;20239;-88
2021/12/04 01:38:36;;;;;;;2.42;1.83;;;18.70;99.90;;;;;;4234037;28;20373;-87
2021/12/04 01:40:38;;;;;;;1.95;1.55;;;18.80;99.90;;;;;;4231797;28;20222;-87
2021/12/04 01:42:41;;;;;;;2.17;1.63;;;18.70;99.90;;;;;;4231483;28;20275;-87
2021/12/04 01:44:44;;;;;;;2.35;2.05;;;18.70;99.90;;;;;;4231507;28;20231;-88
2021/12/04 01:46:46;;;;;;;2.50;1.98;;;18.70;99.90;;;;;;4232344;28;20626;-88
2021/12/04 01:48:49;;;;;;;1.77;1.52;;;18.70;99.90;;;;;;4231448;28;20218;-88
2021/12/04 01:50:52;;;;;;;1.77;1.50;;;18.70;99.90;;;;;;4231798;28;20255;-88
2021/12/04 01:52:59;;;;;;;2.05;1.70;;;18.70;99.90;;;;;;4231751;28;20194;-87
2021/12/04 01:55:01;;;;;;;2.38;1.67;;;18.70;99.90;;;;;;4231913;28;20247;-87
2021/12/04 01:57:04;;;;;;;2.80;2.22;;;18.70;99.90;;;;;;4239468;28;20706;-87
2021/12/04 01:59:08;;;;;;;2.35;1.80;;;18.70;99.90;;;;;;4248105;28;20221;-88
2021/12/04 02:01:12;;;;;;;2.45;1.60;;;18.70;99.90;;;;;;4248343;28;20205;-87
2021/12/04 02:03:14;;;;;;;1.73;1.60;;;18.70;99.90;;;;;;4248501;28;20745;-88
2021/12/04 02:05:16;;;;;;;2.03;1.60;;;18.70;99.90;;;;;;4248614;28;20234;-87
2021/12/04 02:07:20;;;;;;;1.70;1.60;;;18.60;99.90;;;;;;4248344;28;20213;-87
2021/12/04 02:09:24;;;;;;;2.65;1.73;;;18.70;99.90;;;;;;4247854;28;20269;-88
2021/12/04 02:11:26;;;;;;;1.50;1.40;;;18.70;99.90;;;;;;4248437;28;20253;-87
2021/12/04 02:13:30;;;;;;;2.58;1.73;;;18.70;99.90;;;;;;4242516;28;20209;-87
2021/12/04 02:15:32;;;;;;;2.55;1.80;;;18.60;99.90;;;;;;4244538;28;20202;-88
2021/12/04 02:17:35;;;;;;;2.28;1.40;;;18.60;99.90;;;;;;4248565;28;20205;-87
2021/12/04 02:19:37;;;;;;;1.85;1.60;;;18.60;99.90;;;;;;4247970;28;20220;-87
2021/12/04 02:21:41;;;;;;;1.75;1.48;;;18.60;99.90;;;;;;4248382;28;20218;-87
2021/12/04 02:23:44;;;;;;;2.17;1.55;;;18.60;99.90;;;;;;4248361;27;20258;-87
2021/12/04 02:25:46;;;;;;;1.65;1.52;;;18.60;99.90;;;;;;4250994;27;20266;-87
2021/12/04 02:27:49;;;;;;;2.13;1.50;;;18.60;99.90;;;;;;4252108;27;20254;-87
2021/12/04 02:29:52;;;;;;;1.42;1.27;;;18.60;99.90;;;;;;4251536;27;20193;-87
2021/12/04 02:31:57;;;;;;;1.88;1.58;;;18.60;99.90;;;;;;4251252;27;20257;-88
2021/12/04 02:34:00;;;;;;;1.48;1.25;;;18.60;99.90;;;;;;4251500;27;20645;-88
2021/12/04 02:36:06;;;;;;;1.40;1.30;;;18.60;99.90;;;;;;4251273;27;20656;-88
2021/12/04 02:38:11;;;;;;;2.08;1.50;;;18.60;99.90;;;;;;4250182;27;20255;-88
2021/12/04 02:40:21;;;;;;;1.38;1.25;;;18.60;99.90;;;;;;4235043;28;20236;-87
2021/12/04 02:42:24;;;;;;;1.42;1.30;;;18.60;99.90;;;;;;4234336;28;20603;-88
2021/12/04 02:44:33;;;;;;;1.98;1.20;;;18.60;99.90;;;;;;4233979;28;20210;-88
2021/12/04 02:46:35;;;;;;;1.60;1.40;;;18.50;99.90;;;;;;4234386;28;20194;-88
2021/12/04 02:48:38;;;;;;;2.17;1.48;;;18.60;99.90;;;;;;4233818;28;20267;-88
2021/12/04 02:50:41;;;;;;;1.95;1.38;;;18.60;99.90;;;;;;4233942;27;20271;-87
2021/12/04 02:52:45;;;;;;;1.90;1.50;;;18.50;99.90;;;;;;4234219;28;20186;-87
2021/12/04 02:54:49;;;;;;;1.70;1.50;;;18.50;99.90;;;;;;4233824;28;20255;-88
2021/12/04 02:56:52;;;;;;;1.88;1.30;;;18.60;99.90;;;;;;4234124;28;20733;-88
2021/12/04 02:59:00;;;;;;;1.50;1.17;;;18.60;99.90;;;;;;4233839;28;20703;-87
2021/12/04 03:01:04;;;;;;;1.83;1.60;;;18.60;99.90;;;;;;4234023;28;20193;-88
2021/12/04 03:03:07;;;;;;;1.80;1.50;;;18.60;99.90;;;;;;4233839;28;20210;-88
2021/12/04 03:05:11;;;;;;;1.80;1.60;;;18.50;99.90;;;;;;4233574;28;20210;-87
2021/12/04 03:07:14;;;;;;;1.50;1.40;;;18.50;99.90;;;;;;4234161;28;20186;-87
2021/12/04 03:09:17;;;;;;;1.48;1.30;;;18.60;99.90;;;;;;4234051;28;20243;-88
2021/12/04 03:11:21;;;;;;;2.33;1.50;;;18.60;99.90;;;;;;4233555;28;20267;-87
2021/12/04 03:13:23;;;;;;;2.05;1.50;;;18.60;99.90;;;;;;4221719;28;20253;-88
2021/12/04 03:15:26;;;;;;;1.27;1.02;;;18.50;99.90;;;;;;4232498;28;20240;-87
2021/12/04 03:17:28;;;;;;;1.60;1.30;;;18.50;99.90;;;;;;4233312;28;20259;-87
2021/12/04 03:19:31;;;;;;;1.27;1.17;;;18.50;99.90;;;;;;4232869;28;20705;-87
2021/12/04 03:21:35;;;;;;;1.17;1.08;;;18.60;99.90;;;;;;4233505;28;20198;-88
2021/12/04 03:23:51;;;;;;;1.38;1.20;;;18.50;99.90;;;;;;4233975;28;20294;-87
2021/12/04 03:25:56;;;;;;;1.40;1.30;;;18.50;99.90;;;;;;4234279;28;20190;-87
2021/12/04 03:28:04;;;;;;;1.50;1.27;;;18.50;99.90;;;;;;4233419;28;20255;-87
2021/12/04 03:30:17;;;;;;;2.25;1.58;;;18.50;99.90;;;;;;4233421;28;20542;-87
2021/12/04 03:32:47;;;;;;;1.33;1.23;;;18.50;99.90;;;;;;4233456;28;20239;-88
2021/12/04 03:41:45;;;;;;;1.42;1.00;;;18.50;99.90;;;;;;4233323;28;20181;-87
2021/12/04 03:43:49;;;;;;;1.00;0.90;;;18.40;99.90;;;;;;4232874;28;20226;-87
2021/12/04 03:45:58;;;;;;;1.13;1.02;;;18.40;99.90;;;;;;4232985;28;20186;-87
2021/12/04 03:48:07;;;;;;;1.52;1.25;;;18.40;99.90;;;;;;4232287;28;20286;-88
2021/12/04 03:50:10;;;;;;;1.33;1.15;;;18.50;99.90;;;;;;4232451;28;20213;-87
2021/12/04 03:52:12;;;;;;;1.30;1.10;;;18.50;99.90;;;;;;4232665;28;20275;-88
2021/12/04 03:54:15;;;;;;;1.70;1.20;;;18.40;99.90;;;;;;4232804;28;20247;-88
2021/12/04 03:56:21;;;;;;;1.38;1.15;;;18.50;99.90;;;;;;4232745;28;20588;-87
2021/12/04 03:58:24;;;;;;;1.10;1.00;;;18.50;99.90;;;;;;4232713;28;20650;-88
2021/12/04 04:00:29;;;;;;;2.05;1.20;;;18.40;99.90;;;;;;4232720;28;20217;-88
2021/12/04 04:02:31;;;;;;;1.40;1.30;;;18.40;99.90;;;;;;4232639;28;20194;-87
2021/12/04 04:04:33;;;;;;;1.40;1.10;;;18.40;99.90;;;;;;4232506;28;20214;-88
2021/12/04 04:06:36;;;;;;;2.45;1.10;;;18.40;99.90;;;;;;4231927;28;20209;-87
2021/12/04 04:08:38;;;;;;;1.15;1.02;;;18.40;99.90;;;;;;4231693;28;20263;-87
2021/12/04 04:10:43;;;;;;;1.20;1.10;;;18.40;99.90;;;;;;4232630;28;20201;-88
2021/12/04 04:12:45;;;;;;;1.50;1.35;;;18.40;99.90;;;;;;4232711;28;20697;-88
2021/12/04 04:14:48;;;;;;;1.33;1.23;;;18.40;99.90;;;;;;4232522;28;20210;-87
2021/12/04 04:16:53;;;;;;;1.55;1.13;;;18.40;99.90;;;;;;4233235;28;20255;-88
2021/12/04 04:18:56;;;;;;;1.20;1.10;;;18.40;99.90;;;;;;4232788;28;20241;-88
2021/12/04 04:20:59;;;;;;;1.50;1.05;;;18.40;99.90;;;;;;4232615;28;20259;-87
2021/12/04 04:23:01;;;;;;;1.35;0.95;;;18.40;99.90;;;;;;4232280;28;20283;-87
2021/12/04 04:25:04;;;;;;;1.20;1.00;;;18.40;99.90;;;;;;4232644;28;20231;-88
2021/12/04 04:27:07;;;;;;;1.35;1.20;;;18.40;99.90;;;;;;4232685;28;20193;-87
2021/12/04 04:29:09;;;;;;;1.20;1.10;;;18.40;99.90;;;;;;4233187;28;20194;-87
2021/12/04 04:31:12;;;;;;;1.65;1.33;;;18.40;99.90;;;;;;4232493;28;20730;-88
2021/12/04 04:33:16;;;;;;;1.33;1.20;;;18.40;99.90;;;;;;4232295;28;20206;-88
2021/12/04 04:35:21;;;;;;;1.45;1.13;;;18.40;99.90;;;;;;4232546;28;20604;-87
2021/12/04 04:37:29;;;;;;;1.17;1.00;;;18.40;99.90;;;;;;4232429;28;20642;-87
2021/12/04 04:58:26;;;;;;;1.10;1.00;;;18.40;99.90;;;;;;4233878;28;20190;-88
2021/12/04 05:00:50;;;;;;;1.58;1.13;;;18.30;99.90;;;;;;4226732;28;20267;-88
2021/12/04 05:10:33;;;;;;;1.20;1.10;;;18.30;99.90;;;;;;4232087;28;20182;-88
2021/12/04 05:12:47;;;;;;;1.40;1.30;;;18.30;99.90;;;;;;4231523;28;20213;-87
2021/12/04 05:14:55;;;;;;;2.67;1.25;;;18.30;99.90;;;;;;4231741;28;20205;-88
2021/12/04 05:17:04;;;;;;;1.38;1.17;;;18.30;99.90;;;;;;4232612;28;20695;-88
2021/12/04 05:19:13;;;;;;;1.20;1.10;;;18.30;99.90;;;;;;4231467;28;20229;-87
2021/12/04 05:21:17;;;;;;;1.60;1.50;;;18.30;99.90;;;;;;4231914;28;20198;-87
2021/12/04 05:23:20;;;;;;;1.65;1.33;;;18.30;99.90;;;;;;4231595;28;20591;-88
2021/12/04 05:25:22;;;;;;;1.63;1.10;;;18.30;99.90;;;;;;4231600;28;20266;-87
2021/12/04 05:27:24;;;;;;;1.33;0.90;;;18.20;99.90;;;;;;4231740;28;20232;-88
2021/12/04 05:29:27;;;;;;;1.08;0.90;;;18.20;99.90;;;;;;4232027;28;20235;-88
2021/12/04 05:31:30;;;;;;;1.60;1.30;;;18.30;99.90;;;;;;4232147;28;20598;-87
2021/12/04 05:33:32;;;;;;;1.40;1.20;;;18.30;99.90;;;;;;4231665;28;20234;-87
2021/12/04 05:35:35;;;;;;;1.52;1.30;;;18.30;99.90;;;;;;4231659;28;20263;-88
2021/12/04 05:37:39;;;;;;;1.60;1.40;;;18.30;99.90;;;;;;4231694;28;20206;-88
2021/12/04 05:39:41;;;;;;;1.20;1.00;;;18.20;99.90;;;;;;4231510;28;20217;-87
2021/12/04 05:41:44;;;;;;;1.77;1.23;;;18.30;99.90;;;;;;4232036;28;20201;-88
2021/12/04 05:43:47;;;;;;;1.60;1.17;;;18.30;99.90;;;;;;4231341;28;20229;-88
2021/12/04 05:45:56;;;;;;;1.38;1.10;;;18.30;99.90;;;;;;4231678;28;20201;-87
2021/12/04 05:48:04;;;;;;;1.45;1.10;;;18.20;99.90;;;;;;4231884;28;20234;-87
2021/12/04 05:50:19;;;;;;;1.35;0.93;;;18.30;99.90;;;;;;4231549;28;20217;-88
2021/12/04 05:52:34;;;;;;;1.63;1.20;;;18.20;99.90;;;;;;4231761;28;20263;-88
2021/12/04 05:57:08;;;;;;;1.20;1.10;;;18.20;99.90;;;;;;4206237;28;20583;-88
2021/12/04 05:59:10;;;;;;;1.38;1.13;;;18.30;99.90;;;;;;4232004;28;20194;-87
2021/12/04 06:01:15;;;;;;;1.27;1.00;;;18.20;99.90;;;;;;4234736;28;20222;-87
2021/12/04 06:03:18;;;;;;;1.30;1.20;;;18.20;99.90;;;;;;4234649;28;20209;-87
2021/12/04 06:05:20;;;;;;;1.67;1.08;;;18.20;99.90;;;;;;4234841;28;20259;-88
2021/12/04 06:07:23;;;;;;;1.15;0.90;;;18.20;99.90;;;;;;4234899;28;20210;-87
2021/12/04 06:09:25;;;;;;;1.67;1.23;;;18.20;99.90;;;;;;4234572;28;20278;-87
2021/12/04 06:11:29;;;;;;;1.50;1.08;;;18.20;99.90;;;;;;4234454;28;20209;-88
2021/12/04 06:13:32;;;;;;;1.30;1.17;;;18.20;99.90;;;;;;4234895;28;20600;-88
2021/12/04 06:15:34;;;;;;;1.17;0.98;;;18.20;99.90;;;;;;4234414;28;20267;-87
2021/12/04 06:17:37;;;;;;;1.63;1.15;;;18.20;99.90;;;;;;4234721;28;20626;-87
2021/12/04 06:24:18;;;;;;;1.13;1.02;;;18.20;99.90;;;;;;4234682;28;20202;-87
2021/12/04 06:26:21;;;;;;;1.13;1.00;;;18.20;99.90;;;;;;4234722;28;20587;-88
2021/12/04 06:28:25;;;;;;;1.52;1.15;;;18.20;99.90;;;;;;4234466;28;20259;-87
2021/12/04 06:30:27;;;;;;;1.77;1.23;;;18.10;99.90;;;;;;4234454;28;20198;-88
2021/12/04 06:32:30;;;;;;;1.73;1.20;;;18.20;99.90;;;;;;4234469;28;20186;-87
2021/12/04 06:34:32;;;;;;;1.40;0.98;;;18.20;99.90;;;;;;4234273;28;20198;-87
2021/12/04 06:36:37;;;;;;;1.73;1.35;;;18.10;99.90;;;;;;4234209;28;20259;-88
2021/12/04 06:38:39;;;;;;;1.55;1.30;;;18.10;99.90;;;;;;4234030;28;20210;-88
2021/12/04 06:40:42;;;;;;;1.67;1.13;;;18.10;99.90;;;;;;4233991;28;20210;-88
2021/12/04 06:42:45;;;;;;;1.00;0.90;;;18.10;99.90;;;;;;4234184;28;20699;-88
2021/12/04 06:44:51;;;;;;;1.08;0.98;;;18.10;99.90;;;;;;4234160;28;20731;-88
2021/12/04 06:46:54;;;;;;;1.30;1.20;;;18.10;99.90;;;;;;4234843;28;20202;-88
2021/12/04 06:49:08;;;;;;;1.17;1.08;;;18.10;99.90;;;;;;4228472;28;20291;-88
2021/12/04 06:51:20;;;;;;;1.60;1.10;;;18.10;99.90;;;;;;4228148;28;20650;-88
2021/12/04 06:53:27;;;;;;;1.10;1.00;;;18.10;99.90;;;;;;4234034;28;20239;-88
2021/12/04 06:55:37;;;;;;;1.20;1.10;;;18.10;99.90;;;;;;4233869;28;20634;-88
2021/12/04 06:57:40;;;;;;;1.00;0.90;;;18.10;99.90;;;;;;4233732;28;20213;-88
2021/12/04 06:59:45;;;;;;;1.30;0.98;;;18.10;99.90;;;;;;4234120;28;20227;-88
2021/12/04 07:01:49;;;;;;;2.70;1.00;;;18.10;99.90;;;;;;4234165;28;20570;-87
2021/12/04 07:03:51;;;;;;;1.20;1.10;;;18.10;99.90;;;;;;4233828;28;20247;-88
2021/12/04 07:05:54;;;;;;;1.30;1.00;;;18.10;99.90;;;;;;4233730;28;20291;-88
2021/12/04 07:07:56;;;;;;;1.15;0.93;;;18.10;99.90;;;;;;4233834;28;20205;-88
2021/12/04 07:09:58;;;;;;;1.10;0.98;;;18.10;99.90;;;;;;4233264;28;20221;-88
2021/12/04 07:12:01;;;;;;;1.70;1.10;;;18.10;99.90;;;;;;4234096;28;20243;-88
2021/12/04 07:14:04;;;;;;;1.10;1.00;;;18.00;99.90;;;;;;4233905;28;20267;-88
2021/12/04 07:16:08;;;;;;;1.23;0.98;;;18.00;99.90;;;;;;4233689;28;20202;-88
2021/12/04 07:18:12;;;;;;;1.50;1.00;;;18.00;99.90;;;;;;4233180;28;20282;-88
2021/12/04 07:20:15;;;;;;;1.35;1.20;;;18.00;99.90;;;;;;4233819;27;20278;-88
2021/12/04 07:22:17;;;;;;;1.25;1.10;;;18.00;99.90;;;;;;4233717;28;20190;-88
2021/12/04 07:24:19;;;;;;;1.13;1.02;;;18.00;99.90;;;;;;4233336;28;20209;-88
2021/12/04 07:26:22;;;;;;;1.10;1.00;;;18.00;99.90;;;;;;4233221;28;20282;-87
2021/12/04 07:28:24;;;;;;;1.42;1.25;;;18.00;99.90;;;;;;4233492;28;20198;-88
2021/12/04 07:30:27;;;;;;;1.27;1.02;;;18.00;99.90;;;;;;4233432;28;20263;-88
2021/12/04 07:32:29;;;;;;;1.00;0.90;;;18.00;99.90;;;;;;4233312;28;20206;-87
2021/12/04 07:34:33;;;;;;;0.98;0.88;;;18.00;99.90;;;;;;4233470;28;20201;-88
2021/12/04 07:36:35;;;;;;;0.77;0.75;;;18.00;99.90;;;;;;4233933;28;20579;-88
2021/12/04 07:38:38;;;;;;;1.13;1.00;;;18.00;99.90;;;;;;4233382;28;20210;-88
2021/12/04 07:40:40;;;;;;;1.83;1.00;;;18.00;99.90;;;;;;4233663;28;20247;-88
2021/12/04 07:42:43;;;;;;;1.42;1.08;;;18.00;99.90;;;;;;4233169;28;20228;-88
2021/12/04 07:44:46;;;;;;;1.05;0.90;;;18.00;99.90;;;;;;4233176;28;20218;-88
2021/12/04 07:46:48;;;;;;;0.90;0.82;;;18.00;99.90;;;;;;4233102;28;20251;-88
2021/12/04 07:48:51;;;;;;;1.52;1.17;;;18.00;99.90;;;;;;4233782;28;20205;-88
2021/12/04 07:51:01;;;;;;;1.50;1.00;;;17.90;99.90;;;;;;4232820;28;20214;-88
2021/12/04 07:53:04;;;;;;;0.85;0.85;;;17.90;99.90;;;;;;4242183;27;20270;-88
2021/12/04 07:55:08;;;;;;;1.15;0.88;;;18.00;99.90;;;;;;4250775;27;20209;-88
2021/12/04 07:57:10;;;;;;;1.33;0.85;;;18.00;99.90;;;;;;4250128;27;20602;-88
2021/12/04 07:59:13;;;;;;;2.00;0.82;;;17.90;99.90;;;;;;4249686;27;20217;-87
2021/12/04 08:01:15;;;;;;;1.10;1.00;;;18.00;99.90;;;;;;4249695;27;20209;-87
2021/12/04 08:03:18;;;;;;;1.05;0.95;;;17.90;99.90;;;;;;4249835;27;20586;-87
2021/12/04 08:05:20;;;;;;;1.25;1.00;;;17.80;99.90;;;;;;4249852;27;20213;-87
2021/12/04 08:07:24;;;;;;;0.85;0.82;;;17.80;99.90;;;;;;4249665;27;20319;-88
2021/12/04 08:09:27;;;;;;;0.90;0.90;;;17.80;99.90;;;;;;4249527;27;20217;-88
2021/12/04 08:11:29;;;;;;;0.85;0.75;;;17.90;99.90;;;;;;4249486;27;20205;-87
2021/12/04 08:13:32;;;;;;;1.00;0.90;;;18.00;99.90;;;;;;4242654;27;20206;-87
2021/12/04 08:15:36;;;;;;;1.20;1.00;;;18.00;99.90;;;;;;4244720;27;20201;-88
2021/12/04 08:17:40;;;;;;;1.40;1.00;;;18.10;99.90;;;;;;4249503;27;20250;-87
2021/12/04 08:19:42;;;;;;;1.45;1.10;;;18.10;99.90;;;;;;4249644;27;20561;-87
2021/12/04 08:21:44;;;;;;;1.33;1.10;;;18.10;99.90;;;;;;4248890;27;20258;-87
2021/12/04 08:23:48;;;;;;;2.58;0.90;;;18.20;99.90;;;;;;4249377;27;20212;-88
2021/12/04 08:25:51;;;;;;;1.55;1.00;;;18.20;99.90;;;;;;4249388;27;20570;-87
2021/12/04 08:27:53;;;;;;;1.50;1.00;;;18.20;99.90;;;;;;4249786;27;20645;-87
2021/12/04 08:29:56;;;;;;;1.33;1.00;;;18.30;99.90;;;;;;4249257;27;20369;-88
2021/12/04 08:31:58;;;;;;;1.13;0.95;;;18.30;99.90;;;;;;4249589;27;20204;-87
2021/12/04 08:34:01;;;;;;;1.27;0.95;;;18.30;99.90;;;;;;4249630;27;20617;-87
2021/12/04 08:36:05;;;;;;;1.65;1.10;;;18.30;99.90;;;;;;4248969;27;20210;-87
2021/12/04 08:38:08;;;;;;;1.05;0.95;;;18.30;99.90;;;;;;4248800;27;20246;-87
2021/12/04 08:40:15;;;;;;;1.33;1.00;;;18.30;99.90;;;;;;4248297;27;20193;-87
2021/12/04 08:42:19;;;;;;;0.90;0.90;;;18.30;99.90;;;;;;4247903;27;20213;-87
2021/12/04 08:44:21;;;;;;;0.80;0.80;;;18.30;99.90;;;;;;4248190;27;20662;-87
2021/12/04 08:46:24;;;;;;;1.38;1.00;;;18.40;99.90;;;;;;4249081;27;20246;-87
2021/12/04 08:48:29;;;;;;;1.40;1.30;;;18.40;99.90;;;;;;4249744;27;20197;-87
2021/12/04 08:50:33;;;;;;;1.30;1.00;;;18.40;99.90;;;;;;4249465;27;20611;-87
2021/12/04 08:52:36;;;;;;;1.10;0.90;;;18.40;99.90;;;;;;4249088;27;20873;-87
2021/12/04 08:54:39;;;;;;;1.13;1.02;;;18.40;99.90;;;;;;4249035;27;20209;-87
2021/12/04 08:56:43;;;;;;;1.55;0.90;;;18.40;99.90;;;;;;4248871;27;20201;-87
2021/12/04 08:58:45;;;;;;;1.45;1.10;;;18.40;99.90;;;;;;4248898;27;20212;-88
2021/12/04 09:00:51;;;;;;;1.00;0.90;;;18.40;99.90;;;;;;4249545;27;20197;-87
2021/12/04 09:02:55;;;;;;;1.08;0.98;;;18.40;99.90;;;;;;4248769;27;20278;-88
2021/12/04 09:04:58;;;;;;;1.17;0.93;;;18.40;99.90;;;;;;4249299;27;20982;-87
2021/12/04 09:07:00;;;;;;;1.40;1.10;;;18.50;99.90;;;;;;4248684;27;20225;-87
2021/12/04 09:09:05;;;;;;;1.20;1.05;;;18.50;99.90;;;;;;4248898;27;20262;-87
2021/12/04 09:11:12;;;;;;;1.25;1.05;;;18.50;99.90;;;;;;4249577;27;20612;-88
2021/12/04 09:13:17;;;;;;;1.65;1.20;;;18.50;99.90;;;;;;4248596;27;20258;-87
2021/12/04 09:15:21;;;;;;;1.80;1.35;;;18.50;99.90;;;;;;4248878;27;20209;-87
2021/12/04 09:17:24;;;;;;;1.67;1.20;;;18.50;99.90;;;;;;4249155;27;20614;-88
2021/12/04 09:19:27;;;;;;;1.33;1.20;;;18.50;99.90;;;;;;4247927;27;20297;-87
2021/12/04 09:21:29;;;;;;;1.30;1.13;;;18.50;99.90;;;;;;4248649;28;20264;-88
2021/12/04 09:23:35;;;;;;;1.52;1.10;;;18.50;99.90;;;;;;4248343;28;20221;-88
2021/12/04 09:25:39;;;;;;;2.67;1.40;;;18.50;99.90;;;;;;4248618;28;20720;-88
2021/12/04 09:27:58;;;;;;;1.33;1.08;;;18.60;99.90;;;;;;4248772;28;20209;-88
2021/12/04 09:30:13;;;;;;;1.80;1.23;;;18.50;99.90;;;;;;4248469;28;20224;-88
2021/12/04 10:00:37;;;;;;;2.45;1.77;;;18.60;99.90;;;;;;4256844;27;20181;-87
2021/12/04 10:02:59;;;;;;;2.95;2.00;;;18.70;99.90;;;;;;4239728;27;20270;-87
2021/12/04 10:12:47;;;;;;;2.40;1.73;;;18.60;99.90;;;;;;4234823;28;20178;-88
2021/12/04 10:20:08;;;;;;;3.28;2.00;;;18.70;99.90;;;;;;4182383;28;20277;-88
2021/12/04 10:24:58;;;;;;;3.47;2.30;;;18.70;99.90;;;;;;4188996;28;20251;-88
2021/12/04 10:34:02;;;;;;;3.97;2.05;;;18.80;99.90;;;;;;4239410;28;20178;-86
2021/12/04 10:36:06;;;;;;;3.13;2.20;;;18.70;99.90;;;;;;4234792;28;20198;-87
2021/12/04 10:38:14;;;;;;;2.67;2.00;;;18.70;99.90;;;;;;4233822;28;20213;-87
2021/12/04 10:40:19;;;;;;;4.63;2.30;;;18.70;99.90;;;;;;4233791;28;20863;-87
2021/12/04 10:42:25;;;;;;;2.55;2.15;;;18.70;99.90;;;;;;4234473;28;20282;-87
2021/12/04 10:44:28;;;;;;;2.25;1.70;;;18.70;99.90;;;;;;4234033;28;20213;-87
2021/12/04 10:46:30;;;;;;;3.75;2.20;;;18.80;99.90;;;;;;4233615;28;20268;-87
2021/12/04 10:48:34;;;;;;;3.53;2.30;;;18.80;99.90;;;;;;4234293;28;20325;-86
2021/12/04 10:50:43;;;;;;;2.55;2.05;;;18.80;99.90;;;;;;4234254;28;20237;-87
2021/12/04 10:52:51;;;;;;;2.70;2.17;;;18.80;99.90;;;;;;4233957;28;20626;-86
2021/12/04 10:55:11;;;;;;;2.72;2.03;;;18.80;99.90;;;;;;4233611;28;20213;-87
2021/12/04 10:57:33;;;;;;;2.35;1.88;;;18.80;99.90;;;;;;4233518;28;20715;-87
2021/12/04 10:59:46;;;;;;;3.35;2.17;;;18.80;99.90;;;;;;4233810;28;20267;-87
2021/12/04 11:04:30;;;;;;;3.15;2.30;;;18.80;99.90;;;;;;4233256;28;20718;-87
2021/12/04 11:39:58;;;;;;;2.65;2.00;;;18.80;99.90;;;;;;4222599;28;20235;-87
2021/12/04 11:42:06;;;;;;;2.40;1.98;;;18.80;99.90;;;;;;4233167;28;20198;-87
2021/12/04 11:44:11;;;;;;;2.72;2.08;;;18.90;99.90;;;;;;4233506;28;20185;-87
2021/12/04 11:46:20;;;;;;;3.47;2.13;;;18.90;99.90;;;;;;4232851;28;20210;-87
2021/12/04 11:48:29;;;;;;;3.17;2.00;;;18.80;99.90;;;;;;4233935;28;20238;-87
2021/12/04 11:50:34;;;;;;;2.38;1.80;;;18.90;99.90;;;;;;4233287;27;20217;-86
2021/12/04 11:52:46;;;;;;;2.47;1.95;;;18.80;99.90;;;;;;4241153;27;20206;-87
2021/12/04 11:54:52;;;;;;;3.20;2.03;;;18.90;99.90;;;;;;4248813;27;20231;-87
2021/12/04 11:57:06;;;;;;;2.58;2.08;;;18.90;99.90;;;;;;4248998;27;20189;-87
2021/12/04 11:59:09;;;;;;;2.35;1.80;;;18.90;99.90;;;;;;4249939;27;20216;-87
2021/12/04 12:01:22;;;;;;;2.40;1.70;;;18.90;99.90;;;;;;4249488;27;20282;-86
2021/12/04 12:03:27;;;;;;;2.55;1.90;;;18.90;99.90;;;;;;4249728;27;20653;-86
2021/12/04 12:05:30;;;;;;;2.28;1.77;;;18.90;99.90;;;;;;4249867;27;20198;-87
2021/12/04 12:07:34;;;;;;;2.38;1.80;;;18.90;99.90;;;;;;4249165;27;20213;-87
2021/12/04 12:09:39;;;;;;;2.03;1.48;;;18.90;99.90;;;;;;4249057;27;20590;-87
2021/12/04 12:11:50;;;;;;;2.17;1.70;;;18.90;99.90;;;;;;4249271;27;20664;-87
2021/12/04 12:14:00;;;;;;;2.72;1.85;;;19.00;99.90;;;;;;4248944;27;20257;-86
2021/12/04 12:16:08;;;;;;;2.60;1.98;;;19.00;99.90;;;;;;4249095;27;20258;-86
2021/12/04 12:18:14;;;;;;;1.83;1.45;;;18.90;99.90;;;;;;4249425;27;20320;-87
2021/12/04 12:20:35;;;;;;;2.30;1.67;;;19.00;99.90;;;;;;4249338;27;20265;-87
2021/12/04 12:22:42;;;;;;;2.00;1.60;;;19.00;99.90;;;;;;4249474;27;20673;-87
2021/12/04 12:27:18;;;;;;;2.38;1.67;;;19.00;99.90;;;;;;4246905;27;20286;-87
2021/12/04 12:32:18;;;;;;;2.10;1.52;;;19.00;99.90;;;;;;4249620;27;20185;-87
2021/12/04 12:36:45;;;;;;;2.08;1.70;;;19.00;99.90;;;;;;4223161;27;20608;-87
2021/12/04 12:38:51;;;;;;;1.65;1.55;;;19.00;99.90;;;;;;4249465;27;20645;-87
2021/12/04 12:41:02;;;;;;;1.60;1.40;;;19.00;99.90;;;;;;4249849;27;20250;-87
2021/12/04 12:43:17;;;;;;;3.38;1.80;;;19.00;99.90;;;;;;4249950;27;20243;-87
2021/12/04 12:45:24;;;;;;;2.22;1.70;;;19.00;99.90;;;;;;4249191;27;20221;-87
2021/12/04 12:47:27;;;;;;;1.92;1.60;;;19.00;99.90;;;;;;4249193;27;20286;-87
2021/12/04 12:49:36;;;;;;;1.90;1.67;;;19.00;99.90;;;;;;4249054;27;20255;-87
2021/12/04 12:51:39;;;;;;;1.60;1.50;;;19.00;99.90;;;;;;4249550;27;20189;-87
2021/12/04 12:53:44;;;;;;;2.08;1.77;;;19.00;99.90;;;;;;4249004;27;20219;-87
2021/12/04 12:55:50;;;;;;;3.13;1.52;;;19.10;99.90;;;;;;4248880;27;20213;-87
2021/12/04 12:57:53;;;;;;;2.30;1.40;;;19.10;99.90;;;;;;4236009;27;20243;-87
2021/12/04 13:12:13;;;;;;;1.85;1.50;;;19.10;99.90;;;;;;4231922;28;20633;-87
2021/12/04 13:14:20;;;;;;;1.90;1.70;;;19.10;99.90;;;;;;4231264;28;20202;-87
2021/12/04 13:16:30;;;;;;;1.65;1.50;;;19.10;99.90;;;;;;4231483;28;20213;-87
2021/12/04 13:18:37;;;;;;;2.15;1.50;;;19.10;99.90;;;;;;4231728;28;20274;-87
2021/12/04 13:20:40;;;;;;;2.05;1.45;;;19.10;99.90;;;;;;4231976;28;20243;-87
2021/12/04 13:22:43;;;;;;;2.47;1.67;;;19.10;99.90;;;;;;4231764;28;20587;-87
2021/12/04 13:24:48;;;;;;;1.50;1.30;;;19.10;99.90;;;;;;4231143;28;20255;-87
2021/12/04 13:26:52;;;;;;;2.28;1.63;;;19.10;99.90;;;;;;4232048;28;20658;-87